Time;durP1;ratioP1;P1;durP2;ratioP2;P2;SDS_P1;SDS_P2;PMS_P1;PMS_P2;Temp;Humidity;BMP_temperature;BMP_pressure;BME280_temperature;BME280_humidity;BME280_pressure;Samples;Min_cycle;Max_cycle;Signal;HPM_P1;HPM_P2
2024/01/24 00:02:14;;;;;;;4.75;1.10;;;;;;;;;;4988277;28;20032;-77
2024/01/24 00:04:40;;;;;;;4.50;1.33;;;;;;;;;;4988941;28;20033;-77
2024/01/24 00:07:06;;;;;;;4.45;1.13;;;;;;;;;;4985286;28;20092;-77
2024/01/24 00:09:33;;;;;;;2.25;0.95;;;;;;;;;;4981781;28;20411;-76
2024/01/24 00:11:59;;;;;;;4.55;1.13;;;;;;;;;;4988714;28;20042;-77
2024/01/24 00:14:26;;;;;;;7.45;1.10;;;;;;;;;;4987208;28;20053;-76
2024/01/24 00:16:52;;;;;;;7.93;1.20;;;;;;;;;;4984119;28;20460;-75
2024/01/24 00:19:18;;;;;;;4.85;1.40;;;;;;;;;;4988463;28;20054;-77
2024/01/24 00:21:45;;;;;;;6.30;1.40;;;;;;;;;;4988381;28;20034;-75
2024/01/24 00:24:11;;;;;;;4.63;1.70;;;;;;;;;;5013750;28;20031;-77
2024/01/24 00:26:38;;;;;;;3.85;1.90;;;;;;;;;;4989384;28;20033;-78
2024/01/24 00:29:04;;;;;;;4.68;1.88;;;;;;;;;;4985562;28;20066;-76
2024/01/24 00:31:30;;;;;;;6.38;2.20;;;;;;;;;;5013454;28;20412;-77
2024/01/24 00:33:56;;;;;;;4.60;1.80;;;;;;;;;;4987290;28;20097;-78
2024/01/24 00:36:23;;;;;;;4.00;1.70;;;;;;;;;;4985741;28;20041;-76
2024/01/24 00:38:50;;;;;;;4.72;1.90;;;;;;;;;;4987718;28;20029;-77
2024/01/24 00:41:16;;;;;;;6.38;2.10;;;;;;;;;;4981686;28;20030;-76
2024/01/24 00:43:42;;;;;;;5.30;2.30;;;;;;;;;;4983763;28;20033;-76
2024/01/24 00:46:09;;;;;;;4.47;2.20;;;;;;;;;;5013151;28;20069;-75
2024/01/24 00:48:35;;;;;;;5.70;2.90;;;;;;;;;;4982073;28;20087;-75
2024/01/24 00:51:01;;;;;;;7.35;2.63;;;;;;;;;;4986493;28;20025;-76
2024/01/24 00:53:29;;;;;;;4.88;2.40;;;;;;;;;;5008434;28;20042;-76
2024/01/24 00:55:58;;;;;;;9.25;3.00;;;;;;;;;;5012483;28;20034;-77
2024/01/24 00:58:24;;;;;;;6.72;3.08;;;;;;;;;;4989312;28;20062;-77
2024/01/24 01:00:50;;;;;;;7.85;3.53;;;;;;;;;;4984486;28;20172;-76
2024/01/24 01:03:16;;;;;;;7.63;3.20;;;;;;;;;;4986237;28;20038;-77
2024/01/24 01:05:44;;;;;;;9.80;3.90;;;;;;;;;;4990485;28;20087;-76
2024/01/24 01:08:10;;;;;;;5.70;3.55;;;;;;;;;;4989911;28;20061;-76
2024/01/24 01:10:36;;;;;;;5.22;3.25;;;;;;;;;;4985386;28;20065;-77
2024/01/24 01:13:03;;;;;;;6.18;3.00;;;;;;;;;;4991190;28;20049;-77
2024/01/24 01:15:29;;;;;;;5.15;2.85;;;;;;;;;;4989257;28;20131;-76
2024/01/24 01:17:55;;;;;;;9.65;3.55;;;;;;;;;;4991262;28;20130;-77
2024/01/24 01:20:24;;;;;;;8.95;3.00;;;;;;;;;;4985792;28;20085;-77
2024/01/24 01:22:51;;;;;;;9.43;2.70;;;;;;;;;;5009842;28;20475;-78
2024/01/24 01:25:17;;;;;;;8.40;2.80;;;;;;;;;;5015057;28;20027;-77
2024/01/24 01:27:43;;;;;;;9.25;2.75;;;;;;;;;;4989681;28;20045;-77
2024/01/24 01:30:09;;;;;;;7.25;2.90;;;;;;;;;;4990730;28;20041;-77
2024/01/24 01:32:35;;;;;;;5.97;2.63;;;;;;;;;;4986593;28;20121;-77
2024/01/24 01:35:02;;;;;;;8.30;2.65;;;;;;;;;;4991050;28;20053;-76
2024/01/24 01:37:28;;;;;;;7.93;2.30;;;;;;;;;;4995133;28;20512;-76
2024/01/24 01:39:54;;;;;;;9.55;2.95;;;;;;;;;;4989688;28;20038;-76
2024/01/24 01:42:20;;;;;;;9.00;2.20;;;;;;;;;;4993089;28;20473;-76
2024/01/24 01:44:47;;;;;;;6.13;2.20;;;;;;;;;;5014818;28;20045;-77
2024/01/24 01:47:16;;;;;;;11.32;2.38;;;;;;;;;;4989969;28;20034;-76
2024/01/24 01:49:43;;;;;;;7.95;2.55;;;;;;;;;;4975081;28;20128;-77
2024/01/24 01:52:10;;;;;;;8.40;2.60;;;;;;;;;;4991675;28;20407;-79
2024/01/24 01:54:36;;;;;;;8.18;2.28;;;;;;;;;;4992119;28;20019;-78
2024/01/24 01:57:05;;;;;;;8.25;2.13;;;;;;;;;;4991001;28;20224;-77
2024/01/24 01:59:32;;;;;;;11.05;2.17;;;;;;;;;;4992529;28;20050;-75
2024/01/24 02:02:01;;;;;;;7.95;2.33;;;;;;;;;;4992596;28;20027;-77
2024/01/24 02:04:27;;;;;;;9.35;2.15;;;;;;;;;;4986242;28;20049;-77
2024/01/24 02:06:55;;;;;;;8.70;2.15;;;;;;;;;;4991318;28;20109;-76
2024/01/24 02:09:21;;;;;;;10.70;2.08;;;;;;;;;;4986732;28;20041;-77
2024/01/24 02:11:47;;;;;;;10.43;2.30;;;;;;;;;;4989800;28;20030;-77
2024/01/24 02:14:14;;;;;;;9.30;2.22;;;;;;;;;;4992432;28;20054;-77
2024/01/24 02:16:40;;;;;;;9.52;2.05;;;;;;;;;;4991968;28;20134;-76
2024/01/24 02:19:06;;;;;;;13.60;3.40;;;;;;;;;;4988640;28;20106;-77
2024/01/24 02:21:33;;;;;;;10.73;3.10;;;;;;;;;;4992474;28;20099;-77
2024/01/24 02:24:00;;;;;;;8.57;2.53;;;;;;;;;;4992201;28;20023;-82
2024/01/24 02:26:26;;;;;;;14.40;2.53;;;;;;;;;;4985952;28;20045;-76
2024/01/24 02:28:53;;;;;;;11.90;2.65;;;;;;;;;;5018842;28;20035;-77
2024/01/24 02:31:19;;;;;;;12.45;2.80;;;;;;;;;;4990134;28;20596;-77
2024/01/24 02:33:46;;;;;;;14.32;2.40;;;;;;;;;;5011894;28;20457;-76
2024/01/24 02:36:14;;;;;;;13.68;2.85;;;;;;;;;;4985091;28;20181;-77
2024/01/24 02:38:41;;;;;;;12.45;3.22;;;;;;;;;;5014998;28;20031;-77
2024/01/24 02:41:07;;;;;;;13.60;2.30;;;;;;;;;;4987832;28;20030;-78
2024/01/24 02:43:34;;;;;;;11.95;2.42;;;;;;;;;;4991727;28;20462;-77
2024/01/24 02:46:00;;;;;;;16.50;2.72;;;;;;;;;;4990869;28;20137;-77
2024/01/24 02:48:27;;;;;;;10.10;2.28;;;;;;;;;;4990474;28;20519;-77
2024/01/24 02:50:53;;;;;;;18.30;2.50;;;;;;;;;;4989764;28;20026;-78
2024/01/24 02:53:19;;;;;;;16.33;2.05;;;;;;;;;;4989965;28;20026;-74
2024/01/24 02:55:46;;;;;;;16.00;3.08;;;;;;;;;;4985754;28;20073;-77
2024/01/24 02:58:12;;;;;;;16.42;2.47;;;;;;;;;;4991224;28;20037;-76
2024/01/24 03:00:39;;;;;;;17.33;2.85;;;;;;;;;;4990856;28;20022;-75
2024/01/24 03:03:06;;;;;;;15.98;2.72;;;;;;;;;;4991299;28;20026;-76
2024/01/24 03:05:32;;;;;;;14.70;2.75;;;;;;;;;;4985855;28;20023;-75
2024/01/24 03:07:59;;;;;;;10.80;2.55;;;;;;;;;;4991276;28;20216;-81
2024/01/24 03:10:28;;;;;;;21.45;3.00;;;;;;;;;;4989103;28;20201;-76
2024/01/24 03:12:55;;;;;;;14.10;2.95;;;;;;;;;;4991579;28;20036;-77
2024/01/24 03:15:22;;;;;;;14.10;2.10;;;;;;;;;;4991727;28;20038;-77
2024/01/24 03:17:48;;;;;;;23.25;2.95;;;;;;;;;;4999734;28;20121;-77
2024/01/24 03:20:14;;;;;;;21.10;3.13;;;;;;;;;;4990000;28;20101;-77
2024/01/24 03:22:41;;;;;;;16.23;3.00;;;;;;;;;;4985642;28;20035;-78
2024/01/24 03:25:07;;;;;;;20.05;3.22;;;;;;;;;;4989625;28;20058;-76
2024/01/24 03:27:33;;;;;;;21.88;3.60;;;;;;;;;;4968867;28;20035;-77
2024/01/24 03:30:00;;;;;;;23.35;3.72;;;;;;;;;;5013348;28;20378;-75
2024/01/24 03:32:26;;;;;;;24.67;4.25;;;;;;;;;;4990674;28;20037;-77
2024/01/24 03:34:54;;;;;;;17.40;3.50;;;;;;;;;;4989886;28;20039;-75
2024/01/24 03:37:21;;;;;;;18.50;2.95;;;;;;;;;;4988122;28;20026;-77
2024/01/24 03:39:47;;;;;;;20.15;4.13;;;;;;;;;;5019109;28;20042;-76
2024/01/24 03:42:13;;;;;;;23.27;3.17;;;;;;;;;;4988362;28;20033;-77
2024/01/24 03:44:39;;;;;;;23.70;4.18;;;;;;;;;;4990230;28;20034;-76
2024/01/24 03:47:06;;;;;;;21.13;3.58;;;;;;;;;;4990102;28;20049;-77
2024/01/24 03:49:32;;;;;;;19.23;4.13;;;;;;;;;;4985585;28;20491;-77
2024/01/24 03:51:58;;;;;;;24.35;4.75;;;;;;;;;;4988034;28;20030;-75
2024/01/24 03:54:25;;;;;;;26.48;3.53;;;;;;;;;;5008294;28;20445;-76
2024/01/24 03:56:51;;;;;;;23.35;3.65;;;;;;;;;;4989223;28;20030;-75
2024/01/24 03:59:18;;;;;;;24.73;4.22;;;;;;;;;;4988792;28;20033;-77
2024/01/24 04:01:44;;;;;;;28.65;4.78;;;;;;;;;;4987472;28;20085;-77
2024/01/24 04:04:10;;;;;;;31.63;5.38;;;;;;;;;;4989985;28;20082;-76
2024/01/24 04:06:36;;;;;;;37.42;5.65;;;;;;;;;;4998422;28;20042;-76
2024/01/24 04:09:06;;;;;;;32.63;5.07;;;;;;;;;;4987005;28;20118;-85
2024/01/24 04:11:32;;;;;;;29.50;5.03;;;;;;;;;;5013494;28;20049;-76
2024/01/24 04:14:01;;;;;;;31.80;5.82;;;;;;;;;;4988810;28;20019;-76
2024/01/24 04:16:28;;;;;;;33.15;6.13;;;;;;;;;;4990259;28;20038;-77
2024/01/24 04:18:54;;;;;;;29.60;4.75;;;;;;;;;;4985462;28;20045;-75
2024/01/24 04:21:20;;;;;;;36.53;6.25;;;;;;;;;;5013443;28;20070;-76
2024/01/24 04:23:46;;;;;;;34.08;6.35;;;;;;;;;;5012801;28;20038;-78
2024/01/24 04:26:13;;;;;;;27.98;5.60;;;;;;;;;;4987699;28;20038;-77
2024/01/24 04:28:39;;;;;;;43.70;5.80;;;;;;;;;;4996428;28;20057;-77
2024/01/24 04:31:05;;;;;;;38.30;6.78;;;;;;;;;;4989991;28;20370;-77
2024/01/24 04:33:31;;;;;;;30.27;6.30;;;;;;;;;;4990095;28;20045;-76
2024/01/24 04:35:57;;;;;;;35.97;7.22;;;;;;;;;;4988716;28;20041;-78
2024/01/24 04:38:24;;;;;;;33.83;6.68;;;;;;;;;;4985879;28;20042;-78
2024/01/24 04:40:50;;;;;;;43.72;6.50;;;;;;;;;;4990103;28;20057;-78
2024/01/24 04:43:16;;;;;;;36.15;6.10;;;;;;;;;;4985613;28;20026;-76
2024/01/24 04:45:42;;;;;;;42.53;7.20;;;;;;;;;;4990078;28;20034;-77
2024/01/24 04:48:09;;;;;;;41.00;7.20;;;;;;;;;;4990050;28;20038;-77
2024/01/24 04:50:37;;;;;;;36.42;6.25;;;;;;;;;;4988095;28;20101;-75
2024/01/24 04:53:03;;;;;;;40.28;6.30;;;;;;;;;;4986104;28;20031;-76
2024/01/24 04:55:29;;;;;;;53.03;7.93;;;;;;;;;;5012511;28;20129;-77
2024/01/24 04:57:55;;;;;;;51.20;7.72;;;;;;;;;;5011850;28;20047;-83
2024/01/24 05:00:22;;;;;;;51.28;8.35;;;;;;;;;;4988927;28;20484;-77
2024/01/24 05:02:48;;;;;;;46.22;7.72;;;;;;;;;;4988325;28;20081;-77
2024/01/24 05:05:14;;;;;;;49.38;7.32;;;;;;;;;;4988368;28;20034;-76
2024/01/24 05:07:40;;;;;;;49.13;9.32;;;;;;;;;;4989235;28;20066;-76
2024/01/24 05:10:07;;;;;;;55.95;7.72;;;;;;;;;;4988563;28;20113;-77
2024/01/24 05:12:34;;;;;;;49.53;7.63;;;;;;;;;;4988088;28;20038;-76
2024/01/24 05:15:01;;;;;;;52.88;8.00;;;;;;;;;;5017769;28;20081;-76
2024/01/24 05:17:27;;;;;;;47.58;7.70;;;;;;;;;;4988554;28;20052;-76
2024/01/24 05:19:53;;;;;;;43.75;6.88;;;;;;;;;;4989856;28;20046;-76
2024/01/24 05:22:19;;;;;;;56.47;8.95;;;;;;;;;;4987884;28;20030;-75
2024/01/24 05:24:46;;;;;;;45.63;8.55;;;;;;;;;;4987301;28;20030;-74
2024/01/24 05:27:13;;;;;;;53.30;8.77;;;;;;;;;;4987206;28;20120;-76
2024/01/24 05:29:39;;;;;;;54.28;8.82;;;;;;;;;;4988698;28;20089;-76
2024/01/24 05:32:06;;;;;;;50.65;8.48;;;;;;;;;;4985093;28;20078;-77
2024/01/24 05:34:32;;;;;;;49.35;9.40;;;;;;;;;;5015031;28;20038;-76
2024/01/24 05:36:58;;;;;;;48.45;7.75;;;;;;;;;;4987211;28;20503;-77
2024/01/24 05:39:24;;;;;;;56.78;9.93;;;;;;;;;;4989308;28;20027;-78
2024/01/24 05:41:51;;;;;;;68.15;11.20;;;;;;;;;;5005898;28;20031;-76
2024/01/24 05:44:17;;;;;;;44.00;8.77;;;;;;;;;;4986919;28;20075;-75
2024/01/24 05:46:43;;;;;;;47.80;7.75;;;;;;;;;;4988282;28;20125;-76
2024/01/24 05:49:09;;;;;;;63.78;10.57;;;;;;;;;;4989984;28;20042;-76
2024/01/24 05:51:35;;;;;;;64.40;9.82;;;;;;;;;;4989078;28;20034;-77
2024/01/24 05:54:02;;;;;;;58.05;8.52;;;;;;;;;;4974445;28;20129;-76
2024/01/24 05:56:28;;;;;;;59.47;9.32;;;;;;;;;;4991554;28;20125;-76
2024/01/24 05:58:54;;;;;;;52.80;9.10;;;;;;;;;;4991009;28;20057;-75
2024/01/24 06:01:21;;;;;;;52.05;9.48;;;;;;;;;;4991982;28;20137;-76
2024/01/24 06:03:47;;;;;;;66.55;9.55;;;;;;;;;;4987888;28;20096;-78
2024/01/24 06:06:13;;;;;;;62.00;9.05;;;;;;;;;;5021591;28;20027;-77
2024/01/24 06:08:40;;;;;;;60.92;9.55;;;;;;;;;;5014239;28;20160;-77
2024/01/24 06:11:07;;;;;;;64.53;9.73;;;;;;;;;;4989665;28;20578;-77
2024/01/24 06:13:33;;;;;;;59.20;10.75;;;;;;;;;;4987757;28;20038;-76
2024/01/24 06:15:59;;;;;;;54.83;9.35;;;;;;;;;;4988544;28;20041;-77
2024/01/24 06:18:25;;;;;;;61.90;9.57;;;;;;;;;;4986613;28;20065;-75
2024/01/24 06:20:51;;;;;;;65.63;10.20;;;;;;;;;;4989420;28;20030;-75
2024/01/24 06:23:17;;;;;;;60.08;10.20;;;;;;;;;;4989682;28;20110;-77
2024/01/24 06:25:43;;;;;;;59.33;8.68;;;;;;;;;;5007735;28;20089;-78
2024/01/24 06:28:10;;;;;;;58.95;9.25;;;;;;;;;;4988521;28;20034;-80
2024/01/24 06:30:36;;;;;;;74.50;10.18;;;;;;;;;;4986971;28;20064;-77
2024/01/24 06:33:02;;;;;;;69.05;10.70;;;;;;;;;;4990654;28;21103;-78
2024/01/24 06:35:29;;;;;;;71.85;10.95;;;;;;;;;;4991523;28;20038;-75
2024/01/24 06:37:55;;;;;;;62.25;11.77;;;;;;;;;;4986108;28;20046;-78
2024/01/24 06:40:21;;;;;;;68.10;9.98;;;;;;;;;;4991708;28;20081;-76
2024/01/24 06:42:47;;;;;;;59.42;12.75;;;;;;;;;;4987415;28;20031;-76
2024/01/24 06:45:14;;;;;;;57.72;9.57;;;;;;;;;;5013483;28;20437;-76
2024/01/24 06:47:40;;;;;;;67.68;9.90;;;;;;;;;;4987481;28;20030;-77
2024/01/24 06:50:08;;;;;;;69.25;10.18;;;;;;;;;;4990724;28;20057;-77
2024/01/24 06:52:34;;;;;;;58.00;9.98;;;;;;;;;;4988405;28;20048;-78
2024/01/24 06:55:01;;;;;;;70.65;9.63;;;;;;;;;;4991065;28;20026;-77
2024/01/24 06:57:28;;;;;;;66.47;10.43;;;;;;;;;;4987704;28;20101;-76
2024/01/24 06:59:54;;;;;;;55.92;9.23;;;;;;;;;;4990551;28;20119;-78
2024/01/24 07:02:20;;;;;;;64.35;9.75;;;;;;;;;;4989479;28;20113;-77
2024/01/24 07:04:46;;;;;;;56.20;10.02;;;;;;;;;;5016442;28;20104;-77
2024/01/24 07:07:14;;;;;;;52.58;8.65;;;;;;;;;;4990170;28;20547;-76
2024/01/24 07:09:40;;;;;;;61.50;9.20;;;;;;;;;;4990227;28;20038;-76
2024/01/24 07:12:06;;;;;;;62.53;10.07;;;;;;;;;;4988425;28;20034;-77
2024/01/24 07:14:33;;;;;;;65.00;9.77;;;;;;;;;;4986670;28;20113;-77
2024/01/24 07:17:00;;;;;;;51.65;9.32;;;;;;;;;;4987360;28;20054;-77
2024/01/24 07:19:26;;;;;;;64.15;10.05;;;;;;;;;;4989156;28;20495;-77
2024/01/24 07:21:52;;;;;;;60.05;9.02;;;;;;;;;;5003758;28;20492;-77
2024/01/24 07:24:18;;;;;;;57.40;9.20;;;;;;;;;;4971988;28;20034;-76
2024/01/24 07:26:45;;;;;;;55.53;9.68;;;;;;;;;;5019369;28;20201;-77
2024/01/24 07:29:11;;;;;;;62.15;8.98;;;;;;;;;;4981960;28;20054;-76
2024/01/24 07:31:40;;;;;;;60.42;11.38;;;;;;;;;;5022783;28;20124;-77
2024/01/24 07:34:07;;;;;;;47.97;8.10;;;;;;;;;;5022210;28;20085;-76
2024/01/24 07:36:33;;;;;;;60.95;8.30;;;;;;;;;;5002589;28;20097;-79
2024/01/24 07:38:59;;;;;;;59.75;7.95;;;;;;;;;;4971477;28;20093;-76
2024/01/24 07:41:25;;;;;;;60.33;10.80;;;;;;;;;;4970273;28;20105;-76
2024/01/24 07:43:51;;;;;;;49.63;8.38;;;;;;;;;;4985866;28;20126;-77
2024/01/24 07:46:17;;;;;;;73.05;9.50;;;;;;;;;;4971985;28;20039;-77
2024/01/24 07:48:44;;;;;;;45.53;8.20;;;;;;;;;;4970738;28;20054;-77
2024/01/24 07:51:10;;;;;;;49.55;8.40;;;;;;;;;;4970435;28;20023;-77
2024/01/24 07:53:38;;;;;;;52.80;9.13;;;;;;;;;;4971733;28;20375;-77
2024/01/24 07:56:05;;;;;;;55.15;8.45;;;;;;;;;;4971331;28;20050;-77
2024/01/24 07:58:31;;;;;;;56.17;10.23;;;;;;;;;;4968831;28;20515;-76
2024/01/24 08:00:59;;;;;;;49.38;8.23;;;;;;;;;;5001702;28;20263;-77
2024/01/24 08:03:25;;;;;;;52.30;7.88;;;;;;;;;;4970531;28;20111;-78
2024/01/24 08:05:51;;;;;;;52.60;8.38;;;;;;;;;;5002377;28;20039;-78
2024/01/24 08:08:17;;;;;;;58.05;8.20;;;;;;;;;;4970611;28;20499;-77
2024/01/24 08:10:43;;;;;;;60.50;9.70;;;;;;;;;;4970385;28;20050;-77
2024/01/24 08:13:10;;;;;;;45.72;8.27;;;;;;;;;;4970739;28;20046;-77
2024/01/24 08:15:36;;;;;;;55.38;8.27;;;;;;;;;;4977734;28;20050;-77
2024/01/24 08:18:02;;;;;;;51.25;7.38;;;;;;;;;;5008277;28;20412;-79
2024/01/24 08:20:28;;;;;;;61.30;10.02;;;;;;;;;;4971324;28;20019;-76
2024/01/24 08:22:54;;;;;;;64.50;10.18;;;;;;;;;;4971029;28;20042;-78
2024/01/24 08:25:22;;;;;;;45.00;7.43;;;;;;;;;;4974327;28;20026;-76
2024/01/24 08:27:48;;;;;;;56.28;9.32;;;;;;;;;;5019588;28;20061;-78
2024/01/24 08:30:15;;;;;;;51.25;8.82;;;;;;;;;;5020955;28;20113;-77
2024/01/24 08:32:42;;;;;;;48.20;8.32;;;;;;;;;;5021056;28;20114;-76
2024/01/24 08:35:09;;;;;;;57.65;9.07;;;;;;;;;;4984927;28;20042;-77
2024/01/24 08:37:35;;;;;;;48.55;8.02;;;;;;;;;;4970582;28;20035;-76
2024/01/24 08:40:02;;;;;;;61.72;8.70;;;;;;;;;;4970087;28;20079;-75
2024/01/24 08:42:29;;;;;;;52.25;9.07;;;;;;;;;;4969350;28;20673;-76
2024/01/24 08:44:55;;;;;;;52.75;8.77;;;;;;;;;;4970809;28;20026;-78
2024/01/24 08:47:21;;;;;;;54.75;8.13;;;;;;;;;;4969901;28;20073;-75
2024/01/24 08:49:48;;;;;;;55.97;9.23;;;;;;;;;;4970397;28;20039;-78
2024/01/24 08:52:14;;;;;;;65.20;8.88;;;;;;;;;;4969199;28;20039;-77
2024/01/24 08:54:43;;;;;;;60.40;8.70;;;;;;;;;;4970946;28;20034;-77
2024/01/24 08:57:10;;;;;;;48.53;8.18;;;;;;;;;;4970656;28;20063;-77
2024/01/24 08:59:39;;;;;;;46.10;9.15;;;;;;;;;;4968585;28;20099;-77
2024/01/24 09:02:07;;;;;;;51.60;7.60;;;;;;;;;;5001088;28;20039;-76
2024/01/24 09:04:33;;;;;;;54.67;8.95;;;;;;;;;;4970905;28;20121;-77
2024/01/24 09:06:59;;;;;;;56.67;8.73;;;;;;;;;;5014011;28;20136;-77
2024/01/24 09:09:26;;;;;;;50.30;8.60;;;;;;;;;;4989360;28;20034;-76
2024/01/24 09:11:53;;;;;;;51.25;7.72;;;;;;;;;;4989371;28;20057;-77
2024/01/24 09:14:19;;;;;;;49.97;8.73;;;;;;;;;;4987762;28;20043;-77
2024/01/24 09:16:45;;;;;;;49.85;7.97;;;;;;;;;;5020905;28;20042;-77
2024/01/24 09:19:12;;;;;;;41.17;9.32;;;;;;;;;;5020820;28;20362;-77
2024/01/24 09:21:39;;;;;;;61.85;9.65;;;;;;;;;;4989522;28;20035;-77
2024/01/24 09:24:06;;;;;;;55.85;10.20;;;;;;;;;;4989660;28;20031;-77
2024/01/24 09:26:32;;;;;;;51.72;9.82;;;;;;;;;;4991872;28;20575;-77
2024/01/24 09:28:58;;;;;;;56.35;9.40;;;;;;;;;;4992053;28;20492;-77
2024/01/24 09:31:24;;;;;;;54.70;9.07;;;;;;;;;;5024384;28;20081;-77
2024/01/24 09:33:51;;;;;;;48.63;8.27;;;;;;;;;;4992252;28;20049;-77
2024/01/24 09:36:17;;;;;;;53.88;9.82;;;;;;;;;;5024551;28;20047;-78
2024/01/24 09:38:44;;;;;;;62.55;9.30;;;;;;;;;;4991389;28;20034;-77
2024/01/24 09:41:14;;;;;;;52.83;8.50;;;;;;;;;;4992456;28;20030;-77
2024/01/24 09:43:40;;;;;;;53.45;9.32;;;;;;;;;;4997113;28;20027;-77
2024/01/24 09:46:09;;;;;;;49.38;8.45;;;;;;;;;;4973705;28;20042;-77
2024/01/24 09:48:36;;;;;;;62.17;7.97;;;;;;;;;;4973985;28;20105;-78
2024/01/24 09:51:02;;;;;;;64.75;10.05;;;;;;;;;;4973460;28;20039;-77
2024/01/24 09:53:31;;;;;;;48.85;8.00;;;;;;;;;;4972680;28;20052;-79
2024/01/24 09:55:57;;;;;;;46.30;7.03;;;;;;;;;;4972043;28;20023;-77
2024/01/24 09:58:23;;;;;;;51.13;9.20;;;;;;;;;;4978144;28;20125;-78
2024/01/24 10:00:51;;;;;;;51.40;9.40;;;;;;;;;;4993306;28;20031;-77
2024/01/24 10:03:18;;;;;;;48.53;8.60;;;;;;;;;;5022460;28;20072;-77
2024/01/24 10:05:45;;;;;;;51.40;9.15;;;;;;;;;;4993077;28;20484;-78
2024/01/24 10:08:11;;;;;;;46.80;7.60;;;;;;;;;;4993159;28;20034;-77
2024/01/24 10:10:37;;;;;;;52.78;8.60;;;;;;;;;;5023962;28;20038;-77
2024/01/24 10:13:04;;;;;;;50.97;7.32;;;;;;;;;;5022633;28;20023;-78
2024/01/24 10:15:30;;;;;;;51.65;8.57;;;;;;;;;;4992761;28;20034;-78
2024/01/24 10:17:56;;;;;;;43.28;8.07;;;;;;;;;;5024029;28;20041;-77
2024/01/24 10:20:23;;;;;;;52.97;9.68;;;;;;;;;;4992803;28;20026;-77
2024/01/24 10:22:50;;;;;;;61.38;9.43;;;;;;;;;;5023380;28;20500;-79
2024/01/24 10:25:17;;;;;;;41.80;7.50;;;;;;;;;;4975196;28;20031;-77
2024/01/24 10:27:43;;;;;;;42.83;8.90;;;;;;;;;;4992330;28;20038;-78
2024/01/24 10:30:14;;;;;;;54.83;9.40;;;;;;;;;;4990842;28;20084;-78
2024/01/24 10:32:47;;;;;;;50.70;8.05;;;;;;;;;;4992245;28;20113;-77
2024/01/24 10:35:14;;;;;;;43.50;7.95;;;;;;;;;;4986086;28;20070;-78
2024/01/24 10:37:41;;;;;;;60.85;9.57;;;;;;;;;;4972178;28;20027;-77
2024/01/24 10:40:13;;;;;;;51.97;7.28;;;;;;;;;;4990916;28;20438;-78
2024/01/24 10:42:43;;;;;;;53.47;8.35;;;;;;;;;;5012668;28;20034;-77
2024/01/24 10:45:09;;;;;;;55.80;8.85;;;;;;;;;;4972432;28;20058;-78
2024/01/24 10:47:35;;;;;;;44.90;7.57;;;;;;;;;;4972725;28;20054;-77
2024/01/24 10:50:07;;;;;;;57.05;9.23;;;;;;;;;;4988488;28;20399;-80
2024/01/24 10:52:34;;;;;;;46.67;7.97;;;;;;;;;;5011980;28;20038;-77
2024/01/24 10:55:06;;;;;;;57.03;8.02;;;;;;;;;;4993083;28;20031;-79
2024/01/24 10:57:35;;;;;;;54.80;8.57;;;;;;;;;;4989180;28;20042;-76
2024/01/24 11:00:15;;;;;;;44.85;8.65;;;;;;;;;;4971019;28;20030;-77
2024/01/24 11:02:42;;;;;;;47.33;7.55;;;;;;;;;;4972141;28;20405;-78
2024/01/24 11:05:11;;;;;;;48.60;8.95;;;;;;;;;;4972490;28;20030;-78
2024/01/24 11:07:42;;;;;;;43.38;8.55;;;;;;;;;;4971412;28;20035;-78
2024/01/24 11:10:12;;;;;;;48.20;8.40;;;;;;;;;;4971939;28;20061;-79
2024/01/24 11:12:38;;;;;;;44.17;7.57;;;;;;;;;;4973241;28;20063;-78
2024/01/24 11:15:08;;;;;;;41.78;7.60;;;;;;;;;;4972706;28;20400;-78
2024/01/24 11:17:35;;;;;;;48.22;8.35;;;;;;;;;;4973606;28;20038;-77
2024/01/24 11:20:08;;;;;;;49.03;8.13;;;;;;;;;;4973130;28;20413;-76
2024/01/24 11:22:34;;;;;;;48.10;7.22;;;;;;;;;;4972783;28;20049;-77
2024/01/24 11:25:01;;;;;;;56.90;8.25;;;;;;;;;;4981724;28;20022;-77
2024/01/24 11:27:27;;;;;;;46.00;8.93;;;;;;;;;;4991063;28;20116;-76
2024/01/24 11:29:54;;;;;;;49.80;8.73;;;;;;;;;;4991366;28;20074;-76
2024/01/24 11:32:39;;;;;;;53.10;9.60;;;;;;;;;;5021322;28;20408;-78
2024/01/24 11:35:24;;;;;;;58.60;8.73;;;;;;;;;;5004376;28;20030;-78
2024/01/24 11:37:50;;;;;;;42.08;6.82;;;;;;;;;;4984897;28;20455;-77
2024/01/24 11:40:17;;;;;;;38.55;7.57;;;;;;;;;;4984092;28;20037;-77
2024/01/24 11:42:53;;;;;;;45.33;7.60;;;;;;;;;;4971360;28;20504;-77
2024/01/24 11:45:21;;;;;;;46.40;7.35;;;;;;;;;;5005555;28;20108;-78
2024/01/24 11:47:47;;;;;;;43.33;7.47;;;;;;;;;;4989601;28;20792;-78
2024/01/24 11:50:14;;;;;;;38.70;6.72;;;;;;;;;;5002550;28;20026;-79
2024/01/24 11:52:40;;;;;;;54.05;8.52;;;;;;;;;;4990194;28;20165;-78
2024/01/24 11:55:07;;;;;;;47.75;8.07;;;;;;;;;;4990432;28;20097;-77
2024/01/24 11:57:33;;;;;;;46.38;7.60;;;;;;;;;;4990109;28;20039;-80
2024/01/24 12:00:00;;;;;;;48.58;8.35;;;;;;;;;;4971323;28;20035;-77
2024/01/24 12:02:26;;;;;;;54.60;8.35;;;;;;;;;;4971089;28;20035;-77
2024/01/24 12:04:53;;;;;;;47.30;8.32;;;;;;;;;;4972122;28;20479;-76
2024/01/24 12:07:19;;;;;;;59.35;8.98;;;;;;;;;;5021690;28;20045;-76
2024/01/24 12:09:47;;;;;;;46.63;6.97;;;;;;;;;;5002297;28;20038;-80
2024/01/24 12:12:14;;;;;;;53.90;8.82;;;;;;;;;;4968294;28;20181;-76
2024/01/24 12:14:40;;;;;;;46.72;9.18;;;;;;;;;;4968481;28;20054;-77
2024/01/24 12:17:10;;;;;;;49.53;8.70;;;;;;;;;;4969073;28;20035;-77
2024/01/24 12:19:36;;;;;;;49.38;8.65;;;;;;;;;;4967394;28;20039;-79
2024/01/24 12:22:08;;;;;;;41.13;8.00;;;;;;;;;;4969665;28;20043;-78
2024/01/24 12:24:38;;;;;;;43.00;7.15;;;;;;;;;;4988137;28;20487;-78
2024/01/24 12:27:05;;;;;;;43.08;7.75;;;;;;;;;;4990680;28;20077;-78
2024/01/24 12:29:32;;;;;;;49.25;8.02;;;;;;;;;;4990137;28;20041;-78
2024/01/24 12:31:59;;;;;;;55.80;9.50;;;;;;;;;;4989352;28;20061;-78
2024/01/24 12:34:28;;;;;;;42.15;8.40;;;;;;;;;;4990388;28;20030;-76
2024/01/24 12:36:55;;;;;;;43.83;7.10;;;;;;;;;;4990659;28;20031;-78
2024/01/24 12:39:34;;;;;;;43.55;8.60;;;;;;;;;;4990125;28;20048;-77
2024/01/24 12:42:01;;;;;;;48.40;8.23;;;;;;;;;;5021472;28;20045;-77
2024/01/24 12:44:27;;;;;;;52.42;8.45;;;;;;;;;;5004233;28;20034;-77
2024/01/24 12:46:55;;;;;;;52.40;9.00;;;;;;;;;;4988984;28;20130;-79
2024/01/24 12:49:21;;;;;;;56.35;9.50;;;;;;;;;;4990523;28;20121;-78
2024/01/24 12:51:48;;;;;;;49.25;7.50;;;;;;;;;;5004145;28;20041;-79
2024/01/24 12:54:14;;;;;;;46.22;8.10;;;;;;;;;;5021281;28;20061;-78
2024/01/24 12:56:40;;;;;;;54.92;8.27;;;;;;;;;;4989830;28;20038;-78
2024/01/24 12:59:07;;;;;;;41.13;6.90;;;;;;;;;;4990760;28;20025;-76
2024/01/24 13:01:33;;;;;;;40.20;7.05;;;;;;;;;;5008942;28;20061;-78
2024/01/24 13:03:59;;;;;;;46.97;7.40;;;;;;;;;;4994939;28;20034;-78
2024/01/24 13:06:26;;;;;;;42.33;7.47;;;;;;;;;;4994908;28;20038;-77
2024/01/24 13:08:53;;;;;;;43.55;7.18;;;;;;;;;;4994232;28;20030;-77
2024/01/24 13:11:19;;;;;;;40.35;7.05;;;;;;;;;;4993961;28;20077;-77
2024/01/24 13:13:45;;;;;;;46.63;7.65;;;;;;;;;;4993892;28;20058;-77
2024/01/24 13:16:11;;;;;;;50.75;7.40;;;;;;;;;;4974040;28;20046;-78
2024/01/24 13:18:37;;;;;;;45.13;7.30;;;;;;;;;;4974450;28;20031;-75
2024/01/24 13:21:04;;;;;;;46.25;8.40;;;;;;;;;;5005269;28;20039;-78
2024/01/24 13:23:30;;;;;;;42.10;7.60;;;;;;;;;;4987370;28;20041;-77
2024/01/24 13:25:57;;;;;;;43.78;8.50;;;;;;;;;;4998982;28;20038;-77
2024/01/24 13:28:23;;;;;;;50.75;8.82;;;;;;;;;;5036501;28;20050;-77
2024/01/24 13:30:49;;;;;;;43.20;7.05;;;;;;;;;;5022728;28;20049;-78
2024/01/24 13:33:16;;;;;;;52.10;7.65;;;;;;;;;;4993472;28;20113;-78
2024/01/24 13:35:43;;;;;;;49.95;7.47;;;;;;;;;;4993336;28;20523;-78
2024/01/24 13:38:09;;;;;;;49.72;7.85;;;;;;;;;;4992980;28;20049;-78
2024/01/24 13:40:35;;;;;;;40.13;6.32;;;;;;;;;;4992753;28;20025;-77
2024/01/24 13:43:01;;;;;;;48.50;6.78;;;;;;;;;;4993904;28;20042;-78
2024/01/24 13:45:28;;;;;;;44.22;7.15;;;;;;;;;;5023251;28;20121;-78
2024/01/24 13:47:54;;;;;;;54.55;7.80;;;;;;;;;;4992327;28;20411;-77
2024/01/24 13:50:21;;;;;;;48.45;8.52;;;;;;;;;;4993517;28;20529;-77
2024/01/24 13:52:48;;;;;;;45.67;6.88;;;;;;;;;;5025439;28;20041;-78
2024/01/24 13:55:14;;;;;;;41.15;7.03;;;;;;;;;;4992988;28;20657;-76
2024/01/24 13:57:42;;;;;;;49.75;8.02;;;;;;;;;;4993075;28;20387;-78
2024/01/24 14:00:11;;;;;;;47.78;6.90;;;;;;;;;;5015537;28;20081;-79
2024/01/24 14:02:37;;;;;;;40.25;6.68;;;;;;;;;;4973914;28;20045;-78
2024/01/24 14:05:03;;;;;;;47.45;7.65;;;;;;;;;;4974118;28;20042;-78
2024/01/24 14:07:30;;;;;;;42.35;7.35;;;;;;;;;;4995065;28;20070;-78
2024/01/24 14:09:56;;;;;;;52.97;7.47;;;;;;;;;;5009587;28;20039;-77
2024/01/24 14:12:22;;;;;;;44.63;6.53;;;;;;;;;;5004704;28;20035;-76
2024/01/24 14:14:49;;;;;;;43.08;7.30;;;;;;;;;;4983409;28;20038;-77
2024/01/24 14:17:15;;;;;;;60.55;9.50;;;;;;;;;;4972858;28;20043;-77
2024/01/24 14:19:41;;;;;;;46.80;7.10;;;;;;;;;;5003807;28;20073;-77
2024/01/24 14:22:07;;;;;;;50.30;7.70;;;;;;;;;;5003874;28;20081;-80
2024/01/24 14:24:33;;;;;;;49.92;7.72;;;;;;;;;;4971832;28;20027;-76
2024/01/24 14:27:00;;;;;;;47.22;7.15;;;;;;;;;;4991054;28;20052;-76
2024/01/24 14:29:26;;;;;;;44.47;8.38;;;;;;;;;;4986379;28;20193;-78